sensor_id;sensor_type;location;lat;lon;timestamp;pressure;altitude;pressure_sealevel;temperature;humidity
23059;BME280;30585;51.502;7.218;2024-02-23T00:02:23;97863.84;;;5.26;84.39
23059;BME280;30585;51.502;7.218;2024-02-23T00:04:51;97841.19;;;5.20;84.32
23059;BME280;30585;51.502;7.218;2024-02-23T00:07:19;97880.06;;;5.05;84.49
23059;BME280;30585;51.502;7.218;2024-02-23T00:09:47;97893.16;;;5.08;83.91
23059;BME280;30585;51.502;7.218;2024-02-23T00:12:14;97893.00;;;5.09;83.28
23059;BME280;30585;51.502;7.218;2024-02-23T00:14:42;97897.97;;;4.95;82.95
23059;BME280;30585;51.502;7.218;2024-02-23T00:17:12;97909.50;;;4.95;83.72
23059;BME280;30585;51.502;7.218;2024-02-23T00:19:39;97918.38;;;4.96;83.27
23059;BME280;30585;51.502;7.218;2024-02-23T00:22:07;97918.78;;;4.91;83.60
23059;BME280;30585;51.502;7.218;2024-02-23T00:24:35;97918.19;;;4.97;82.95
23059;BME280;30585;51.502;7.218;2024-02-23T00:27:04;97937.59;;;4.99;82.81
23059;BME280;30585;51.502;7.218;2024-02-23T00:29:31;97939.88;;;4.94;83.09
23059;BME280;30585;51.502;7.218;2024-02-23T00:31:59;97948.88;;;4.93;82.10
23059;BME280;30585;51.502;7.218;2024-02-23T00:34:28;97965.75;;;4.84;82.24
23059;BME280;30585;51.502;7.218;2024-02-23T00:36:58;97947.34;;;4.91;82.47
23059;BME280;30585;51.502;7.218;2024-02-23T00:39:26;97963.22;;;4.92;82.44
23059;BME280;30585;51.502;7.218;2024-02-23T00:41:54;97961.81;;;4.88;82.09
23059;BME280;30585;51.502;7.218;2024-02-23T00:44:21;97964.91;;;4.84;82.20
23059;BME280;30585;51.502;7.218;2024-02-23T00:46:49;97977.00;;;4.88;82.93
23059;BME280;30585;51.502;7.218;2024-02-23T00:49:17;97978.81;;;4.87;82.29
23059;BME280;30585;51.502;7.218;2024-02-23T00:51:46;97992.06;;;4.89;81.94
23059;BME280;30585;51.502;7.218;2024-02-23T00:54:14;98005.28;;;4.90;81.89
23059;BME280;30585;51.502;7.218;2024-02-23T00:56:41;98000.91;;;4.89;81.53
23059;BME280;30585;51.502;7.218;2024-02-23T00:59:17;97994.59;;;4.90;80.79
23059;BME280;30585;51.502;7.218;2024-02-23T01:01:45;98015.97;;;4.90;80.66
23059;BME280;30585;51.502;7.218;2024-02-23T01:04:13;98016.94;;;4.89;79.39
23059;BME280;30585;51.502;7.218;2024-02-23T01:06:40;98010.47;;;4.92;80.03
23059;BME280;30585;51.502;7.218;2024-02-23T01:09:10;98008.94;;;4.89;79.00
23059;BME280;30585;51.502;7.218;2024-02-23T01:11:37;98011.03;;;4.86;79.42
23059;BME280;30585;51.502;7.218;2024-02-23T01:14:05;98018.50;;;4.92;79.59
23059;BME280;30585;51.502;7.218;2024-02-23T01:16:34;98025.09;;;4.88;79.98
23059;BME280;30585;51.502;7.218;2024-02-23T01:19:02;98027.47;;;4.81;79.95
23059;BME280;30585;51.502;7.218;2024-02-23T01:21:29;97964.31;;;4.41;80.45
23059;BME280;30585;51.502;7.218;2024-02-23T01:23:57;98037.19;;;4.82;80.27
23059;BME280;30585;51.502;7.218;2024-02-23T01:26:28;98022.97;;;4.72;80.57
23059;BME280;30585;51.502;7.218;2024-02-23T01:28:56;98036.34;;;4.72;80.27
23059;BME280;30585;51.502;7.218;2024-02-23T01:31:24;98055.44;;;4.77;79.45
23059;BME280;30585;51.502;7.218;2024-02-23T01:33:52;98043.91;;;4.76;79.66
23059;BME280;30585;51.502;7.218;2024-02-23T01:36:20;98047.75;;;4.74;80.03
23059;BME280;30585;51.502;7.218;2024-02-23T01:38:47;98035.63;;;4.79;79.78
23059;BME280;30585;51.502;7.218;2024-02-23T01:41:15;98062.22;;;4.81;79.06
23059;BME280;30585;51.502;7.218;2024-02-23T01:43:44;98052.91;;;4.75;80.12
23059;BME280;30585;51.502;7.218;2024-02-23T01:46:12;98057.28;;;4.76;79.63
23059;BME280;30585;51.502;7.218;2024-02-23T01:48:43;98065.28;;;4.76;79.67
23059;BME280;30585;51.502;7.218;2024-02-23T01:51:11;98077.41;;;4.80;79.73
23059;BME280;30585;51.502;7.218;2024-02-23T01:53:39;98070.81;;;4.85;80.20
23059;BME280;30585;51.502;7.218;2024-02-23T01:56:07;98072.78;;;4.92;79.91
23059;BME280;30585;51.502;7.218;2024-02-23T01:58:37;98066.31;;;4.85;80.25
23059;BME280;30585;51.502;7.218;2024-02-23T02:01:06;98070.41;;;4.89;79.47
23059;BME280;30585;51.502;7.218;2024-02-23T02:03:35;98070.25;;;4.91;79.46
23059;BME280;30585;51.502;7.218;2024-02-23T02:06:03;98067.00;;;4.87;79.46
23059;BME280;30585;51.502;7.218;2024-02-23T02:08:32;98074.63;;;4.92;78.84
23059;BME280;30585;51.502;7.218;2024-02-23T02:11:01;98074.88;;;4.89;78.80
23059;BME280;30585;51.502;7.218;2024-02-23T02:13:28;98080.50;;;4.86;79.20
23059;BME280;30585;51.502;7.218;2024-02-23T02:15:57;98072.09;;;4.90;78.83
23059;BME280;30585;51.502;7.218;2024-02-23T02:18:27;98071.22;;;4.80;79.35
23059;BME280;30585;51.502;7.218;2024-02-23T02:20:56;98055.44;;;4.77;78.93
23059;BME280;30585;51.502;7.218;2024-02-23T02:23:24;98068.56;;;4.90;78.90
23059;BME280;30585;51.502;7.218;2024-02-23T02:25:53;98075.59;;;4.91;78.78
23059;BME280;30585;51.502;7.218;2024-02-23T02:28:21;98089.69;;;4.93;78.62
23059;BME280;30585;51.502;7.218;2024-02-23T02:30:49;98083.47;;;4.92;78.88
23059;BME280;30585;51.502;7.218;2024-02-23T02:33:17;98087.84;;;4.93;78.32
23059;BME280;30585;51.502;7.218;2024-02-23T02:35:46;98102.59;;;4.97;77.76
23059;BME280;30585;51.502;7.218;2024-02-23T02:38:14;98096.56;;;4.95;77.78
23059;BME280;30585;51.502;7.218;2024-02-23T02:40:42;98100.50;;;5.01;76.12
23059;BME280;30585;51.502;7.218;2024-02-23T02:43:10;98101.22;;;5.03;76.91
23059;BME280;30585;51.502;7.218;2024-02-23T02:45:38;98106.69;;;5.01;76.78
23059;BME280;30585;51.502;7.218;2024-02-23T02:48:06;98109.63;;;4.98;77.53
23059;BME280;30585;51.502;7.218;2024-02-23T02:50:34;98116.97;;;4.96;77.18
23059;BME280;30585;51.502;7.218;2024-02-23T02:53:04;98128.66;;;4.95;77.54
23059;BME280;30585;51.502;7.218;2024-02-23T02:55:31;98130.75;;;4.92;77.72
23059;BME280;30585;51.502;7.218;2024-02-23T02:57:59;98141.28;;;4.93;77.53
23059;BME280;30585;51.502;7.218;2024-02-23T03:00:27;98147.88;;;4.89;77.87
23059;BME280;30585;51.502;7.218;2024-02-23T03:02:55;98135.78;;;4.85;77.96
23059;BME280;30585;51.502;7.218;2024-02-23T03:05:22;98150.25;;;4.82;78.09
23059;BME280;30585;51.502;7.218;2024-02-23T03:07:50;98139.44;;;4.84;78.36
23059;BME280;30585;51.502;7.218;2024-02-23T03:10:19;98163.75;;;4.81;77.89
23059;BME280;30585;51.502;7.218;2024-02-23T03:12:47;98140.94;;;4.77;78.45
23059;BME280;30585;51.502;7.218;2024-02-23T03:15:15;98146.59;;;4.74;77.71
23059;BME280;30585;51.502;7.218;2024-02-23T03:17:42;98153.59;;;4.75;77.63
23059;BME280;30585;51.502;7.218;2024-02-23T03:20:11;98140.28;;;4.54;78.08
23059;BME280;30585;51.502;7.218;2024-02-23T03:22:39;98155.84;;;4.70;77.66
23059;BME280;30585;51.502;7.218;2024-02-23T03:25:07;98163.41;;;4.65;77.77
23059;BME280;30585;51.502;7.218;2024-02-23T03:27:37;98153.44;;;4.67;77.68
23059;BME280;30585;51.502;7.218;2024-02-23T03:30:06;98158.19;;;4.63;78.44
23059;BME280;30585;51.502;7.218;2024-02-23T03:32:35;98161.13;;;4.60;77.69
23059;BME280;30585;51.502;7.218;2024-02-23T03:35:05;98165.38;;;4.63;78.35
23059;BME280;30585;51.502;7.218;2024-02-23T03:37:34;98166.59;;;4.59;78.12
23059;BME280;30585;51.502;7.218;2024-02-23T03:40:02;98168.56;;;4.57;78.17
23059;BME280;30585;51.502;7.218;2024-02-23T03:42:31;98164.91;;;4.58;78.37
23059;BME280;30585;51.502;7.218;2024-02-23T03:45:00;98170.00;;;4.61;77.88
23059;BME280;30585;51.502;7.218;2024-02-23T03:47:28;98181.13;;;4.66;78.14
23059;BME280;30585;51.502;7.218;2024-02-23T03:49:56;98180.16;;;4.67;77.90
23059;BME280;30585;51.502;7.218;2024-02-23T03:52:24;98176.38;;;4.69;77.52
23059;BME280;30585;51.502;7.218;2024-02-23T03:54:53;98176.38;;;4.69;77.46
23059;BME280;30585;51.502;7.218;2024-02-23T03:57:21;98178.91;;;4.71;77.24
23059;BME280;30585;51.502;7.218;2024-02-23T03:59:52;98184.25;;;4.71;76.78
23059;BME280;30585;51.502;7.218;2024-02-23T04:02:21;98132.66;;;4.40;77.31
23059;BME280;30585;51.502;7.218;2024-02-23T04:04:49;98182.56;;;4.79;77.12
23059;BME280;30585;51.502;7.218;2024-02-23T04:07:17;98192.97;;;4.73;76.56
23059;BME280;30585;51.502;7.218;2024-02-23T04:09:45;98187.34;;;4.76;76.42
23059;BME280;30585;51.502;7.218;2024-02-23T04:12:18;98187.34;;;4.76;76.94
23059;BME280;30585;51.502;7.218;2024-02-23T04:14:46;98189.88;;;4.77;75.88
23059;BME280;30585;51.502;7.218;2024-02-23T04:17:14;98190.47;;;4.81;76.21
23059;BME280;30585;51.502;7.218;2024-02-23T04:19:44;98189.88;;;4.77;77.04
23059;BME280;30585;51.502;7.218;2024-02-23T04:22:12;98185.97;;;4.81;76.63
23059;BME280;30585;51.502;7.218;2024-02-23T04:24:41;98206.63;;;4.79;76.70
23059;BME280;30585;51.502;7.218;2024-02-23T04:27:09;98207.88;;;4.75;77.02
23059;BME280;30585;51.502;7.218;2024-02-23T04:29:37;98201.16;;;4.81;76.19
23059;BME280;30585;51.502;7.218;2024-02-23T04:32:05;98209.31;;;4.79;76.35
23059;BME280;30585;51.502;7.218;2024-02-23T04:34:34;98211.94;;;4.70;76.08
23059;BME280;30585;51.502;7.218;2024-02-23T04:37:03;98211.84;;;4.81;76.39
23059;BME280;30585;51.502;7.218;2024-02-23T04:39:31;98198.88;;;4.76;75.82
23059;BME280;30585;51.502;7.218;2024-02-23T04:41:59;98214.91;;;4.76;75.35
23059;BME280;30585;51.502;7.218;2024-02-23T04:44:27;98220.00;;;4.79;75.66
23059;BME280;30585;51.502;7.218;2024-02-23T04:46:55;98219.72;;;4.82;75.83
23059;BME280;30585;51.502;7.218;2024-02-23T04:49:22;98224.75;;;4.76;75.54
23059;BME280;30585;51.502;7.218;2024-02-23T04:51:50;98221.09;;;4.77;75.61
23059;BME280;30585;51.502;7.218;2024-02-23T04:54:20;98223.38;;;4.81;75.63
23059;BME280;30585;51.502;7.218;2024-02-23T04:56:48;98216.78;;;4.86;75.33
23059;BME280;30585;51.502;7.218;2024-02-23T04:59:16;98209.81;;;4.64;75.04
23059;BME280;30585;51.502;7.218;2024-02-23T05:01:44;98237.44;;;4.84;75.31
23059;BME280;30585;51.502;7.218;2024-02-23T05:04:12;98241.69;;;4.86;74.48
23059;BME280;30585;51.502;7.218;2024-02-23T05:06:40;98231.84;;;4.87;75.79
23059;BME280;30585;51.502;7.218;2024-02-23T05:09:10;98240.72;;;4.87;75.32
23059;BME280;30585;51.502;7.218;2024-02-23T05:11:39;98241.94;;;4.83;75.07
23059;BME280;30585;51.502;7.218;2024-02-23T05:14:07;98256.03;;;4.85;74.65
23059;BME280;30585;51.502;7.218;2024-02-23T05:16:34;98249.13;;;4.82;74.79
23059;BME280;30585;51.502;7.218;2024-02-23T05:19:03;98249.25;;;4.81;75.86
23059;BME280;30585;51.502;7.218;2024-02-23T05:21:31;98249.97;;;4.83;75.18
23059;BME280;30585;51.502;7.218;2024-02-23T05:24:00;98237.19;;;4.87;74.81
23059;BME280;30585;51.502;7.218;2024-02-23T05:26:28;98234.50;;;4.87;74.72
23059;BME280;30585;51.502;7.218;2024-02-23T05:28:57;98235.50;;;4.86;74.73
23059;BME280;30585;51.502;7.218;2024-02-23T05:31:44;98245.59;;;4.82;74.87
23059;BME280;30585;51.502;7.218;2024-02-23T05:34:12;98239.28;;;4.83;74.52
23059;BME280;30585;51.502;7.218;2024-02-23T05:36:40;98231.97;;;4.85;74.25
23059;BME280;30585;51.502;7.218;2024-02-23T05:39:08;98239.00;;;4.86;74.08
23059;BME280;30585;51.502;7.218;2024-02-23T05:41:37;98237.06;;;4.88;74.06
23059;BME280;30585;51.502;7.218;2024-02-23T05:44:06;98223.25;;;4.83;74.88
23059;BME280;30585;51.502;7.218;2024-02-23T05:46:34;98232.09;;;4.84;74.60
23059;BME280;30585;51.502;7.218;2024-02-23T05:49:03;98231.00;;;4.86;74.57
23059;BME280;30585;51.502;7.218;2024-02-23T05:51:31;98223.63;;;4.78;74.63
23059;BME280;30585;51.502;7.218;2024-02-23T05:54:00;98228.72;;;4.81;74.55
23059;BME280;30585;51.502;7.218;2024-02-23T05:56:28;98223.50;;;4.80;75.19
23059;BME280;30585;51.502;7.218;2024-02-23T05:58:56;98226.75;;;4.84;73.87
23059;BME280;30585;51.502;7.218;2024-02-23T06:01:25;98214.78;;;4.78;74.34
23059;BME280;30585;51.502;7.218;2024-02-23T06:03:53;98218.72;;;4.74;74.66
23059;BME280;30585;51.502;7.218;2024-02-23T06:06:21;98235.78;;;4.62;75.14
23059;BME280;30585;51.502;7.218;2024-02-23T06:08:49;98214.16;;;4.65;75.02
23059;BME280;30585;51.502;7.218;2024-02-23T06:11:17;98216.00;;;4.64;75.12
23059;BME280;30585;51.502;7.218;2024-02-23T06:13:45;98206.69;;;4.59;74.61
23059;BME280;30585;51.502;7.218;2024-02-23T06:16:13;98206.94;;;4.56;75.05
23059;BME280;30585;51.502;7.218;2024-02-23T06:18:42;98206.09;;;4.55;74.84
23059;BME280;30585;51.502;7.218;2024-02-23T06:21:14;98204.53;;;4.53;74.55
23059;BME280;30585;51.502;7.218;2024-02-23T06:23:42;98218.06;;;4.61;73.54
23059;BME280;30585;51.502;7.218;2024-02-23T06:26:10;98213.25;;;4.55;74.24
23059;BME280;30585;51.502;7.218;2024-02-23T06:28:39;98220.97;;;4.48;74.37
23059;BME280;30585;51.502;7.218;2024-02-23T06:31:09;98208.22;;;4.52;74.35
23059;BME280;30585;51.502;7.218;2024-02-23T06:33:37;98215.13;;;4.64;73.30
23059;BME280;30585;51.502;7.218;2024-02-23T06:36:07;98206.41;;;4.62;73.33
23059;BME280;30585;51.502;7.218;2024-02-23T06:38:35;98220.03;;;4.59;74.01
23059;BME280;30585;51.502;7.218;2024-02-23T06:41:03;98218.06;;;4.61;73.13
23059;BME280;30585;51.502;7.218;2024-02-23T06:43:31;98210.06;;;4.61;73.02
23059;BME280;30585;51.502;7.218;2024-02-23T06:45:58;98212.00;;;4.59;73.27
23059;BME280;30585;51.502;7.218;2024-02-23T06:48:31;98225.13;;;4.62;73.58
23059;BME280;30585;51.502;7.218;2024-02-23T06:50:58;98202.03;;;4.51;73.24
23059;BME280;30585;51.502;7.218;2024-02-23T06:53:28;98221.59;;;4.61;73.56
23059;BME280;30585;51.502;7.218;2024-02-23T06:55:55;98213.44;;;4.63;73.23
23059;BME280;30585;51.502;7.218;2024-02-23T06:58:25;98182.94;;;4.35;73.83
23059;BME280;30585;51.502;7.218;2024-02-23T07:00:53;98218.06;;;4.61;73.68
23059;BME280;30585;51.502;7.218;2024-02-23T07:03:21;98219.31;;;4.57;73.83
23059;BME280;30585;51.502;7.218;2024-02-23T07:05:48;98232.16;;;4.63;73.01
23059;BME280;30585;51.502;7.218;2024-02-23T07:08:17;98221.97;;;4.57;73.85
23059;BME280;30585;51.502;7.218;2024-02-23T07:10:46;98227.53;;;4.65;73.11
23059;BME280;30585;51.502;7.218;2024-02-23T07:13:14;98224.13;;;4.63;73.55
23059;BME280;30585;51.502;7.218;2024-02-23T07:15:41;98224.91;;;4.54;73.99
23059;BME280;30585;51.502;7.218;2024-02-23T07:18:09;98224.53;;;4.58;73.39
23059;BME280;30585;51.502;7.218;2024-02-23T07:20:37;98223.28;;;4.62;73.66
23059;BME280;30585;51.502;7.218;2024-02-23T07:23:05;98228.94;;;4.69;72.72
23059;BME280;30585;51.502;7.218;2024-02-23T07:25:34;98230.22;;;4.74;73.04
23059;BME280;30585;51.502;7.218;2024-02-23T07:28:03;98223.91;;;4.75;73.50
23059;BME280;30585;51.502;7.218;2024-02-23T07:30:31;98227.28;;;4.77;73.42
23059;BME280;30585;51.502;7.218;2024-02-23T07:32:59;98231.53;;;4.80;73.35
23059;BME280;30585;51.502;7.218;2024-02-23T07:35:27;98231.25;;;4.83;72.97
23059;BME280;30585;51.502;7.218;2024-02-23T07:37:55;98258.56;;;4.87;72.99
23059;BME280;30585;51.502;7.218;2024-02-23T07:40:23;98155.47;;;4.54;72.83
23059;BME280;30585;51.502;7.218;2024-02-23T07:42:51;98220.63;;;4.93;72.24
23059;BME280;30585;51.502;7.218;2024-02-23T07:45:20;98228.22;;;4.97;72.10
23059;BME280;30585;51.502;7.218;2024-02-23T07:47:47;98235.69;;;5.03;72.05
23059;BME280;30585;51.502;7.218;2024-02-23T07:50:15;98235.84;;;5.02;72.56
23059;BME280;30585;51.502;7.218;2024-02-23T07:52:45;98230.81;;;5.08;72.75
23059;BME280;30585;51.502;7.218;2024-02-23T07:55:13;98238.72;;;5.20;71.54
23059;BME280;30585;51.502;7.218;2024-02-23T07:57:43;98238.72;;;5.20;72.39
23059;BME280;30585;51.502;7.218;2024-02-23T08:00:12;98242.38;;;5.19;72.44
23059;BME280;30585;51.502;7.218;2024-02-23T08:02:41;98247.03;;;5.17;72.65
23059;BME280;30585;51.502;7.218;2024-02-23T08:05:09;98234.91;;;5.22;73.80
23059;BME280;30585;51.502;7.218;2024-02-23T08:07:37;98250.25;;;5.20;72.30
23059;BME280;30585;51.502;7.218;2024-02-23T08:10:06;98247.72;;;5.19;73.48
23059;BME280;30585;51.502;7.218;2024-02-23T08:12:33;98247.03;;;5.17;72.58
23059;BME280;30585;51.502;7.218;2024-02-23T08:15:07;98258.13;;;5.22;72.86
23059;BME280;30585;51.502;7.218;2024-02-23T08:17:35;98257.03;;;5.24;72.22
23059;BME280;30585;51.502;7.218;2024-02-23T08:20:06;98251.38;;;5.18;72.39
23059;BME280;30585;51.502;7.218;2024-02-23T08:22:34;98251.97;;;5.31;73.96
23059;BME280;30585;51.502;7.218;2024-02-23T08:25:03;98265.66;;;5.37;72.56
23059;BME280;30585;51.502;7.218;2024-02-23T08:27:31;98262.41;;;5.43;72.21
23059;BME280;30585;51.502;7.218;2024-02-23T08:29:59;98260.31;;;5.37;72.72
23059;BME280;30585;51.502;7.218;2024-02-23T08:32:26;98271.59;;;5.41;71.62
23059;BME280;30585;51.502;7.218;2024-02-23T08:34:54;98268.34;;;5.37;73.34
23059;BME280;30585;51.502;7.218;2024-02-23T08:37:27;98272.00;;;5.36;73.16
23059;BME280;30585;51.502;7.218;2024-02-23T08:39:55;98263.56;;;5.41;72.29
23059;BME280;30585;51.502;7.218;2024-02-23T08:42:23;98264.28;;;5.53;71.94
23059;BME280;30585;51.502;7.218;2024-02-23T08:44:51;98270.66;;;5.61;71.86
23059;BME280;30585;51.502;7.218;2024-02-23T08:47:21;98262.75;;;5.69;72.14
23059;BME280;30585;51.502;7.218;2024-02-23T08:49:48;98261.94;;;5.78;72.99
23059;BME280;30585;51.502;7.218;2024-02-23T08:52:16;98274.91;;;5.83;69.59
23059;BME280;30585;51.502;7.218;2024-02-23T08:54:45;98261.28;;;5.96;70.25
23059;BME280;30585;51.502;7.218;2024-02-23T08:57:13;98257.47;;;6.27;69.45
23059;BME280;30585;51.502;7.218;2024-02-23T08:59:44;98257.16;;;6.49;68.48
23059;BME280;30585;51.502;7.218;2024-02-23T09:02:12;98269.72;;;6.49;69.21
23059;BME280;30585;51.502;7.218;2024-02-23T09:04:40;98259.72;;;6.12;68.80
23059;BME280;30585;51.502;7.218;2024-02-23T09:07:08;98145.03;;;5.50;69.48
23059;BME280;30585;51.502;7.218;2024-02-23T09:09:36;98255.91;;;6.15;69.55
23059;BME280;30585;51.502;7.218;2024-02-23T09:12:05;98266.22;;;6.10;69.44
23059;BME280;30585;51.502;7.218;2024-02-23T09:14:37;98256.22;;;6.22;70.51
23059;BME280;30585;51.502;7.218;2024-02-23T09:17:05;98262.84;;;6.08;69.64
23059;BME280;30585;51.502;7.218;2024-02-23T09:19:35;98265.09;;;6.03;69.45
23059;BME280;30585;51.502;7.218;2024-02-23T09:22:03;98272.00;;;6.05;70.08
23059;BME280;30585;51.502;7.218;2024-02-23T09:24:31;98256.91;;;6.14;70.13
23059;BME280;30585;51.502;7.218;2024-02-23T09:26:59;98264.38;;;6.20;69.44
23059;BME280;30585;51.502;7.218;2024-02-23T09:29:28;98269.88;;;6.28;70.46
23059;BME280;30585;51.502;7.218;2024-02-23T09:31:56;98265.94;;;6.32;68.71
23059;BME280;30585;51.502;7.218;2024-02-23T09:34:24;98271.13;;;6.43;70.10
23059;BME280;30585;51.502;7.218;2024-02-23T09:36:52;98275.22;;;6.38;68.02
23059;BME280;30585;51.502;7.218;2024-02-23T09:39:20;98279.63;;;6.29;68.22
23059;BME280;30585;51.502;7.218;2024-02-23T09:41:50;98273.94;;;6.42;68.52
23059;BME280;30585;51.502;7.218;2024-02-23T09:44:18;98288.19;;;6.33;67.80
23059;BME280;30585;51.502;7.218;2024-02-23T09:46:48;98275.66;;;6.43;68.59
23059;BME280;30585;51.502;7.218;2024-02-23T09:49:16;98275.38;;;6.46;67.48
23059;BME280;30585;51.502;7.218;2024-02-23T09:51:44;98278.72;;;6.58;68.40
23059;BME280;30585;51.502;7.218;2024-02-23T09:54:12;98280.16;;;6.52;67.15
23059;BME280;30585;51.502;7.218;2024-02-23T09:56:44;98281.81;;;6.63;67.66
23059;BME280;30585;51.502;7.218;2024-02-23T09:59:12;98279.13;;;6.63;67.25
23059;BME280;30585;51.502;7.218;2024-02-23T10:01:41;98292.53;;;6.72;67.64
23059;BME280;30585;51.502;7.218;2024-02-23T10:04:10;98259.66;;;6.61;67.18
23059;BME280;30585;51.502;7.218;2024-02-23T10:06:37;98282.22;;;6.77;67.51
23059;BME280;30585;51.502;7.218;2024-02-23T10:09:05;98295.72;;;6.85;67.42
23059;BME280;30585;51.502;7.218;2024-02-23T10:11:33;98281.19;;;6.88;66.17
23059;BME280;30585;51.502;7.218;2024-02-23T10:14:02;98294.72;;;6.96;65.68
23059;BME280;30585;51.502;7.218;2024-02-23T10:16:30;98286.41;;;6.99;67.09
23059;BME280;30585;51.502;7.218;2024-02-23T10:18:57;98281.41;;;7.04;67.54
23059;BME280;30585;51.502;7.218;2024-02-23T10:21:27;98280.47;;;6.96;66.35
23059;BME280;30585;51.502;7.218;2024-02-23T10:23:57;98263.78;;;7.02;67.74
23059;BME280;30585;51.502;7.218;2024-02-23T10:26:26;98249.22;;;6.77;66.39
23059;BME280;30585;51.502;7.218;2024-02-23T10:28:55;98286.47;;;7.17;66.84
23059;BME280;30585;51.502;7.218;2024-02-23T10:31:25;98246.63;;;6.85;65.46
23059;BME280;30585;51.502;7.218;2024-02-23T10:33:54;98293.91;;;7.23;65.39
23059;BME280;30585;51.502;7.218;2024-02-23T10:36:30;98261.00;;;6.94;66.62
23059;BME280;30585;51.502;7.218;2024-02-23T10:39:02;98304.84;;;7.02;64.84
23059;BME280;30585;51.502;7.218;2024-02-23T10:41:34;98308.13;;;6.96;64.39
23059;BME280;30585;51.502;7.218;2024-02-23T10:44:03;98297.78;;;7.01;65.75
23059;BME280;30585;51.502;7.218;2024-02-23T10:46:32;98301.66;;;6.99;64.33
23059;BME280;30585;51.502;7.218;2024-02-23T10:49:01;98302.59;;;7.07;65.53
23059;BME280;30585;51.502;7.218;2024-02-23T10:51:31;98309.47;;;7.19;65.39
23059;BME280;30585;51.502;7.218;2024-02-23T10:54:00;98318.91;;;7.24;66.12
23059;BME280;30585;51.502;7.218;2024-02-23T10:56:27;98322.28;;;7.26;64.22
23059;BME280;30585;51.502;7.218;2024-02-23T10:58:55;98313.25;;;7.27;64.77
23059;BME280;30585;51.502;7.218;2024-02-23T11:01:24;98285.84;;;7.33;66.88
23059;BME280;30585;51.502;7.218;2024-02-23T11:03:52;98312.09;;;7.39;63.99
23059;BME280;30585;51.502;7.218;2024-02-23T11:06:27;98299.75;;;7.46;64.40
23059;BME280;30585;51.502;7.218;2024-02-23T11:09:05;98277.25;;;7.57;63.86
23059;BME280;30585;51.502;7.218;2024-02-23T11:11:36;98310.59;;;7.81;63.42
23059;BME280;30585;51.502;7.218;2024-02-23T11:14:07;98284.75;;;7.98;64.13
23059;BME280;30585;51.502;7.218;2024-02-23T11:16:39;98293.81;;;8.15;62.68
23059;BME280;30585;51.502;7.218;2024-02-23T11:19:08;98299.81;;;8.09;61.39
23059;BME280;30585;51.502;7.218;2024-02-23T11:21:38;98289.56;;;7.95;62.77
23059;BME280;30585;51.502;7.218;2024-02-23T11:24:07;98292.75;;;7.90;62.03
23059;BME280;30585;51.502;7.218;2024-02-23T11:26:37;98273.44;;;7.77;63.20
23059;BME280;30585;51.502;7.218;2024-02-23T11:29:10;98287.00;;;7.75;62.02
23059;BME280;30585;51.502;7.218;2024-02-23T11:31:44;98291.13;;;7.70;62.07
23059;BME280;30585;51.502;7.218;2024-02-23T11:34:13;98289.78;;;7.66;61.64
23059;BME280;30585;51.502;7.218;2024-02-23T11:36:40;98294.88;;;7.59;62.41
23059;BME280;30585;51.502;7.218;2024-02-23T11:39:10;98289.38;;;7.61;63.36
23059;BME280;30585;51.502;7.218;2024-02-23T11:41:38;98300.66;;;7.64;63.74
23059;BME280;30585;51.502;7.218;2024-02-23T11:44:08;98296.88;;;7.57;64.25
23059;BME280;30585;51.502;7.218;2024-02-23T11:46:35;98306.97;;;7.45;62.52
23059;BME280;30585;51.502;7.218;2024-02-23T11:49:03;98289.53;;;7.59;63.12
23059;BME280;30585;51.502;7.218;2024-02-23T11:51:31;98283.56;;;7.65;63.82
23059;BME280;30585;51.502;7.218;2024-02-23T11:54:00;98279.41;;;7.71;63.50
23059;BME280;30585;51.502;7.218;2024-02-23T11:56:29;98307.41;;;7.68;63.02
23059;BME280;30585;51.502;7.218;2024-02-23T11:58:57;98297.47;;;7.51;62.64
23059;BME280;30585;51.502;7.218;2024-02-23T12:01:28;98303.13;;;7.48;64.11
23059;BME280;30585;51.502;7.218;2024-02-23T12:03:56;98295.44;;;7.35;64.37
23059;BME280;30585;51.502;7.218;2024-02-23T12:06:24;98302.91;;;7.41;66.14
23059;BME280;30585;51.502;7.218;2024-02-23T12:08:55;98304.59;;;7.42;65.17
23059;BME280;30585;51.502;7.218;2024-02-23T12:11:24;98303.28;;;7.46;66.04
23059;BME280;30585;51.502;7.218;2024-02-23T12:13:53;98305.31;;;7.35;65.35
23059;BME280;30585;51.502;7.218;2024-02-23T12:16:26;98297.81;;;7.38;64.32
23059;BME280;30585;51.502;7.218;2024-02-23T12:18:54;98289.06;;;7.36;64.78
23059;BME280;30585;51.502;7.218;2024-02-23T12:21:23;98296.28;;;7.36;65.67
23059;BME280;30585;51.502;7.218;2024-02-23T12:23:51;98300.34;;;7.40;65.22
23059;BME280;30585;51.502;7.218;2024-02-23T12:26:19;98318.16;;;7.41;66.00
23059;BME280;30585;51.502;7.218;2024-02-23T12:28:47;98303.47;;;7.35;65.12
23059;BME280;30585;51.502;7.218;2024-02-23T12:31:23;98307.72;;;7.38;65.47
23059;BME280;30585;51.502;7.218;2024-02-23T12:33:52;98307.13;;;7.44;65.75
23059;BME280;30585;51.502;7.218;2024-02-23T12:36:19;98317.53;;;7.47;65.96
23059;BME280;30585;51.502;7.218;2024-02-23T12:38:47;98212.22;;;6.80;66.08
23059;BME280;30585;51.502;7.218;2024-02-23T12:41:15;98319.50;;;7.54;66.40
23059;BME280;30585;51.502;7.218;2024-02-23T12:43:43;98319.78;;;7.51;65.50
23059;BME280;30585;51.502;7.218;2024-02-23T12:46:15;98315.81;;;7.55;65.20
23059;BME280;30585;51.502;7.218;2024-02-23T12:48:43;98328.69;;;7.52;65.37
23059;BME280;30585;51.502;7.218;2024-02-23T12:51:11;98319.34;;;7.56;64.62
23059;BME280;30585;51.502;7.218;2024-02-23T12:53:40;98324.56;;;7.58;64.31
23059;BME280;30585;51.502;7.218;2024-02-23T12:56:10;98297.16;;;7.54;63.80
23059;BME280;30585;51.502;7.218;2024-02-23T12:58:39;98316.25;;;7.78;64.05
23059;BME280;30585;51.502;7.218;2024-02-23T13:01:07;98319.63;;;7.80;64.40
23059;BME280;30585;51.502;7.218;2024-02-23T13:03:38;98317.00;;;7.71;64.04
23059;BME280;30585;51.502;7.218;2024-02-23T13:06:07;98316.94;;;7.80;64.55
23059;BME280;30585;51.502;7.218;2024-02-23T13:08:35;98309.19;;;7.77;63.40
23059;BME280;30585;51.502;7.218;2024-02-23T13:11:03;98314.72;;;7.76;63.61
23059;BME280;30585;51.502;7.218;2024-02-23T13:13:31;98322.88;;;7.84;64.56
23059;BME280;30585;51.502;7.218;2024-02-23T13:15:59;98321.44;;;7.89;64.62
23059;BME280;30585;51.502;7.218;2024-02-23T13:18:27;98321.31;;;7.81;63.15